Gays Mills, WI

7:07 PM CST on December 24, 2014 (GMT -0600)
Soldiers Grove area | Change Station
CLOSE
Current Station
Personal Weather Station
Location: Soldiers Grove, WI
Elevation: 1132 ft
Nearby Weather Stations

Elev 1132 ft 43.42 °N, 90.86 °W | Updated 14 seconds ago

Overcast
Overcast
33.5 °F
Feels Like 34 °F
N
1.0
Wind Variable Wind from South
Gusts 3.0 mph

Today
High -- | Low -- °F
--% Chance of Precip.
Yesterday
High -- | Low -- °F
Precip. -- in
7:33 AM 4:32 PM
Waxing Crescent, 12% visible
Pressure 29.63 in
Visibility 10.0 miles
Clouds Mostly Cloudy 2300 ft
Overcast 2800 ft
Windchill 34 °F
Dew Point 32 °F
Humidity 96%
Rainfall 0.02 in
Snow Depth Not available.
UV 0 out of 12
Pollen .10 out of 12
Air Quality Not available.
Flu Activity Not available.
METAR KOVS 250053Z AUTO 27005KT 10SM BKN023 OVC028 03/M01 A2961 RMK AO2 SLP033 T00281006

More Conditions Fewer Conditions

Pressure 29.63 in
Visibility 10.0 miles
Clouds Mostly Cloudy 2300 ft
Overcast 2800 ft
Windchill 34 °F
Dew Point 32 °F
Humidity 96%
Rainfall 0.02 in
Snow Depth Not available.
UV 0 out of 12
Pollen .10 out of 12
Air Quality Not available.
Flu Activity Not available.
METAR KOVS 250053Z AUTO 27005KT 10SM BKN023 OVC028 03/M01 A2961 RMK AO2 SLP033 T00281006

More Conditions Fewer Conditions

10-Day Weather Forecast

Almanac

Astronomy

Dec. 24, 2014 Rise Set
Actual Time
Civil Twilight
Nautical Twilight
Astronomical Twilight
Moon
Length of Visible Light
Length of Day
Tomorrow will be .
, % of the Moon is Illuminated

Today's Extremes

State Highs State Lows

Community

WunderPhotos

Upload Photos

1,780,199 photos uploaded!

WunderBlogs® & News

Nearby

Air Quality

  Air Quality AQ Index Pollutant
Not available.

Snow Depth

Station Depth Elevation

Earthquake Activity

City Distance Mag. Time & Date
Minimum magnitude displayed is 2.5.

Coastal Water Temperatures

Place Temperature

Nearby Weather Stations